sensor_id;sensor_type;location;lat;lon;timestamp;P1;durP1;ratioP1;P2;durP2;ratioP2
57125;SDS011;43000;50.770;6.110;2022-08-18T00:00:28;16.73;;;15.02;;
57125;SDS011;43000;50.770;6.110;2022-08-18T00:02:54;23.13;;;19.55;;
57125;SDS011;43000;50.770;6.110;2022-08-18T00:05:28;17.85;;;16.05;;
57125;SDS011;43000;50.770;6.110;2022-08-18T00:07:54;15.60;;;14.00;;
57125;SDS011;43000;50.770;6.110;2022-08-18T00:10:21;28.98;;;17.13;;
57125;SDS011;43000;50.770;6.110;2022-08-18T00:12:49;19.52;;;17.55;;
57125;SDS011;43000;50.770;6.110;2022-08-18T00:15:16;16.13;;;14.43;;
57125;SDS011;43000;50.770;6.110;2022-08-18T00:17:43;22.33;;;20.02;;
57125;SDS011;43000;50.770;6.110;2022-08-18T00:20:11;21.23;;;17.58;;
57125;SDS011;43000;50.770;6.110;2022-08-18T00:22:39;14.93;;;13.40;;
57125;SDS011;43000;50.770;6.110;2022-08-18T00:25:06;21.08;;;19.08;;
57125;SDS011;43000;50.770;6.110;2022-08-18T00:27:35;17.20;;;15.45;;
57125;SDS011;43000;50.770;6.110;2022-08-18T00:30:04;19.50;;;17.50;;
57125;SDS011;43000;50.770;6.110;2022-08-18T00:32:34;17.48;;;15.70;;
57125;SDS011;43000;50.770;6.110;2022-08-18T00:35:04;19.35;;;17.40;;
57125;SDS011;43000;50.770;6.110;2022-08-18T00:37:32;26.92;;;24.10;;
57125;SDS011;43000;50.770;6.110;2022-08-18T00:39:59;22.63;;;20.23;;
57125;SDS011;43000;50.770;6.110;2022-08-18T00:42:26;21.38;;;19.17;;
57125;SDS011;43000;50.770;6.110;2022-08-18T00:44:54;25.98;;;23.38;;
57125;SDS011;43000;50.770;6.110;2022-08-18T00:47:22;26.13;;;23.58;;
57125;SDS011;43000;50.770;6.110;2022-08-18T00:49:52;21.08;;;17.77;;
57125;SDS011;43000;50.770;6.110;2022-08-18T00:52:19;24.60;;;22.10;;
57125;SDS011;43000;50.770;6.110;2022-08-18T00:54:47;25.42;;;22.65;;
57125;SDS011;43000;50.770;6.110;2022-08-18T00:57:19;26.52;;;23.90;;
57125;SDS011;43000;50.770;6.110;2022-08-18T00:59:49;24.35;;;21.92;;
57125;SDS011;43000;50.770;6.110;2022-08-18T01:02:20;27.58;;;24.83;;
57125;SDS011;43000;50.770;6.110;2022-08-18T01:04:52;28.38;;;25.45;;
57125;SDS011;43000;50.770;6.110;2022-08-18T01:07:23;27.25;;;24.42;;
57125;SDS011;43000;50.770;6.110;2022-08-18T01:09:54;22.52;;;20.23;;
57125;SDS011;43000;50.770;6.110;2022-08-18T01:12:23;26.35;;;21.23;;
57125;SDS011;43000;50.770;6.110;2022-08-18T01:14:50;26.88;;;22.85;;
57125;SDS011;43000;50.770;6.110;2022-08-18T01:17:16;28.25;;;23.42;;
57125;SDS011;43000;50.770;6.110;2022-08-18T01:20:02;26.85;;;23.83;;
57125;SDS011;43000;50.770;6.110;2022-08-18T01:22:51;25.15;;;22.50;;
57125;SDS011;43000;50.770;6.110;2022-08-18T01:25:23;28.27;;;25.40;;
57125;SDS011;43000;50.770;6.110;2022-08-18T01:28:18;27.95;;;24.52;;
57125;SDS011;43000;50.770;6.110;2022-08-18T01:30:49;26.33;;;23.55;;
57125;SDS011;43000;50.770;6.110;2022-08-18T01:33:22;24.40;;;21.80;;
57125;SDS011;43000;50.770;6.110;2022-08-18T01:35:51;30.73;;;27.45;;
57125;SDS011;43000;50.770;6.110;2022-08-18T01:38:20;25.35;;;22.50;;
57125;SDS011;43000;50.770;6.110;2022-08-18T01:40:48;26.48;;;22.88;;
57125;SDS011;43000;50.770;6.110;2022-08-18T01:43:15;24.58;;;22.05;;
57125;SDS011;43000;50.770;6.110;2022-08-18T01:45:42;29.55;;;24.15;;
57125;SDS011;43000;50.770;6.110;2022-08-18T01:48:09;25.95;;;22.83;;
57125;SDS011;43000;50.770;6.110;2022-08-18T01:50:36;22.98;;;19.55;;
57125;SDS011;43000;50.770;6.110;2022-08-18T01:53:06;21.83;;;19.33;;
57125;SDS011;43000;50.770;6.110;2022-08-18T01:55:38;22.90;;;20.33;;
57125;SDS011;43000;50.770;6.110;2022-08-18T01:58:09;25.50;;;22.80;;
57125;SDS011;43000;50.770;6.110;2022-08-18T02:00:36;30.50;;;25.92;;
57125;SDS011;43000;50.770;6.110;2022-08-18T02:03:04;24.80;;;21.42;;
57125;SDS011;43000;50.770;6.110;2022-08-18T02:05:35;24.70;;;22.05;;
57125;SDS011;43000;50.770;6.110;2022-08-18T02:08:04;22.30;;;19.98;;
57125;SDS011;43000;50.770;6.110;2022-08-18T02:10:32;25.77;;;23.08;;
57125;SDS011;43000;50.770;6.110;2022-08-18T02:13:00;28.00;;;24.90;;
57125;SDS011;43000;50.770;6.110;2022-08-18T02:15:27;26.25;;;23.13;;
57125;SDS011;43000;50.770;6.110;2022-08-18T02:17:53;27.50;;;24.52;;
57125;SDS011;43000;50.770;6.110;2022-08-18T02:20:20;25.38;;;22.75;;
57125;SDS011;43000;50.770;6.110;2022-08-18T02:22:47;23.63;;;21.17;;
57125;SDS011;43000;50.770;6.110;2022-08-18T02:25:14;31.77;;;25.83;;
57125;SDS011;43000;50.770;6.110;2022-08-18T02:27:42;25.30;;;22.48;;
57125;SDS011;43000;50.770;6.110;2022-08-18T02:30:12;29.98;;;26.88;;
57125;SDS011;43000;50.770;6.110;2022-08-18T02:32:40;24.00;;;19.77;;
57125;SDS011;43000;50.770;6.110;2022-08-18T02:35:07;30.70;;;27.58;;
57125;SDS011;43000;50.770;6.110;2022-08-18T02:37:35;34.50;;;28.10;;
57125;SDS011;43000;50.770;6.110;2022-08-18T02:40:03;27.08;;;24.33;;
57125;SDS011;43000;50.770;6.110;2022-08-18T02:42:30;25.98;;;23.17;;
57125;SDS011;43000;50.770;6.110;2022-08-18T02:44:56;26.40;;;23.63;;
57125;SDS011;43000;50.770;6.110;2022-08-18T02:47:24;24.38;;;21.77;;
57125;SDS011;43000;50.770;6.110;2022-08-18T02:49:51;27.38;;;24.40;;
57125;SDS011;43000;50.770;6.110;2022-08-18T02:52:17;26.85;;;22.50;;
57125;SDS011;43000;50.770;6.110;2022-08-18T02:54:44;26.65;;;21.48;;
57125;SDS011;43000;50.770;6.110;2022-08-18T02:57:11;24.45;;;21.92;;
57125;SDS011;43000;50.770;6.110;2022-08-18T02:59:38;25.48;;;22.20;;
57125;SDS011;43000;50.770;6.110;2022-08-18T03:02:06;31.70;;;28.25;;
57125;SDS011;43000;50.770;6.110;2022-08-18T03:04:35;28.83;;;25.75;;
57125;SDS011;43000;50.770;6.110;2022-08-18T03:07:02;32.80;;;26.27;;
57125;SDS011;43000;50.770;6.110;2022-08-18T03:09:31;28.27;;;24.75;;
57125;SDS011;43000;50.770;6.110;2022-08-18T03:11:58;31.67;;;28.38;;
57125;SDS011;43000;50.770;6.110;2022-08-18T03:14:25;30.40;;;26.83;;
57125;SDS011;43000;50.770;6.110;2022-08-18T03:16:52;29.50;;;26.40;;
57125;SDS011;43000;50.770;6.110;2022-08-18T03:19:18;31.65;;;26.85;;
57125;SDS011;43000;50.770;6.110;2022-08-18T03:21:47;26.58;;;23.65;;
57125;SDS011;43000;50.770;6.110;2022-08-18T03:24:14;33.47;;;29.05;;
57125;SDS011;43000;50.770;6.110;2022-08-18T03:26:43;31.63;;;26.77;;
57125;SDS011;43000;50.770;6.110;2022-08-18T03:29:10;31.67;;;24.08;;
57125;SDS011;43000;50.770;6.110;2022-08-18T03:31:37;34.60;;;28.70;;
57125;SDS011;43000;50.770;6.110;2022-08-18T03:34:07;29.45;;;26.30;;
57125;SDS011;43000;50.770;6.110;2022-08-18T03:36:34;29.17;;;26.13;;
57125;SDS011;43000;50.770;6.110;2022-08-18T03:39:03;27.25;;;23.17;;
57125;SDS011;43000;50.770;6.110;2022-08-18T03:41:31;27.80;;;24.55;;
57125;SDS011;43000;50.770;6.110;2022-08-18T03:43:59;29.35;;;26.10;;
57125;SDS011;43000;50.770;6.110;2022-08-18T03:46:27;33.63;;;30.10;;
57125;SDS011;43000;50.770;6.110;2022-08-18T03:48:55;34.70;;;30.38;;
57125;SDS011;43000;50.770;6.110;2022-08-18T03:51:22;26.95;;;24.02;;
57125;SDS011;43000;50.770;6.110;2022-08-18T03:53:51;28.75;;;23.75;;
57125;SDS011;43000;50.770;6.110;2022-08-18T03:56:22;28.35;;;24.90;;
57125;SDS011;43000;50.770;6.110;2022-08-18T03:58:51;29.58;;;26.42;;
57125;SDS011;43000;50.770;6.110;2022-08-18T04:01:22;29.33;;;25.42;;
57125;SDS011;43000;50.770;6.110;2022-08-18T04:03:51;33.10;;;29.67;;
57125;SDS011;43000;50.770;6.110;2022-08-18T04:06:21;35.92;;;29.42;;
57125;SDS011;43000;50.770;6.110;2022-08-18T04:08:50;34.05;;;30.50;;
57125;SDS011;43000;50.770;6.110;2022-08-18T04:11:18;31.92;;;27.42;;
57125;SDS011;43000;50.770;6.110;2022-08-18T04:13:46;26.80;;;23.90;;
57125;SDS011;43000;50.770;6.110;2022-08-18T04:16:13;30.58;;;27.10;;
57125;SDS011;43000;50.770;6.110;2022-08-18T04:18:40;27.35;;;24.42;;
57125;SDS011;43000;50.770;6.110;2022-08-18T04:21:08;28.75;;;24.30;;
57125;SDS011;43000;50.770;6.110;2022-08-18T04:23:38;32.25;;;28.42;;
57125;SDS011;43000;50.770;6.110;2022-08-18T04:26:07;28.95;;;25.88;;
57125;SDS011;43000;50.770;6.110;2022-08-18T04:28:35;35.28;;;31.42;;
57125;SDS011;43000;50.770;6.110;2022-08-18T04:31:06;27.70;;;24.70;;
57125;SDS011;43000;50.770;6.110;2022-08-18T04:33:34;35.85;;;27.13;;
57125;SDS011;43000;50.770;6.110;2022-08-18T04:36:05;30.45;;;26.88;;
57125;SDS011;43000;50.770;6.110;2022-08-18T04:38:34;34.83;;;28.98;;
57125;SDS011;43000;50.770;6.110;2022-08-18T04:41:00;32.78;;;29.20;;
57125;SDS011;43000;50.770;6.110;2022-08-18T04:43:27;30.52;;;26.83;;
57125;SDS011;43000;50.770;6.110;2022-08-18T04:45:54;34.85;;;29.70;;
57125;SDS011;43000;50.770;6.110;2022-08-18T04:48:27;29.90;;;26.70;;
57125;SDS011;43000;50.770;6.110;2022-08-18T04:50:57;34.42;;;30.60;;
57125;SDS011;43000;50.770;6.110;2022-08-18T04:53:27;34.33;;;30.42;;
57125;SDS011;43000;50.770;6.110;2022-08-18T04:56:16;35.00;;;27.58;;
57125;SDS011;43000;50.770;6.110;2022-08-18T04:58:49;33.00;;;29.50;;
57125;SDS011;43000;50.770;6.110;2022-08-18T05:01:17;29.65;;;24.05;;
57125;SDS011;43000;50.770;6.110;2022-08-18T05:03:47;30.55;;;27.35;;
57125;SDS011;43000;50.770;6.110;2022-08-18T05:06:14;31.65;;;28.13;;
57125;SDS011;43000;50.770;6.110;2022-08-18T05:08:41;30.45;;;27.15;;
57125;SDS011;43000;50.770;6.110;2022-08-18T05:11:08;31.20;;;27.75;;
57125;SDS011;43000;50.770;6.110;2022-08-18T05:13:35;48.65;;;37.40;;
57125;SDS011;43000;50.770;6.110;2022-08-18T05:16:02;37.30;;;30.80;;
57125;SDS011;43000;50.770;6.110;2022-08-18T05:18:29;34.30;;;30.30;;
57125;SDS011;43000;50.770;6.110;2022-08-18T05:20:59;32.45;;;28.20;;
57125;SDS011;43000;50.770;6.110;2022-08-18T05:23:26;27.73;;;24.42;;
57125;SDS011;43000;50.770;6.110;2022-08-18T05:25:57;27.80;;;23.35;;
57125;SDS011;43000;50.770;6.110;2022-08-18T05:28:24;29.85;;;26.40;;
57125;SDS011;43000;50.770;6.110;2022-08-18T05:30:51;31.65;;;27.10;;
57125;SDS011;43000;50.770;6.110;2022-08-18T05:33:18;30.92;;;26.92;;
57125;SDS011;43000;50.770;6.110;2022-08-18T05:35:46;40.05;;;33.58;;
57125;SDS011;43000;50.770;6.110;2022-08-18T05:38:19;46.30;;;38.30;;
57125;SDS011;43000;50.770;6.110;2022-08-18T05:40:57;52.53;;;40.95;;
57125;SDS011;43000;50.770;6.110;2022-08-18T05:43:31;54.33;;;39.50;;
57125;SDS011;43000;50.770;6.110;2022-08-18T05:46:00;67.20;;;48.78;;
57125;SDS011;43000;50.770;6.110;2022-08-18T05:48:29;58.60;;;42.22;;
57125;SDS011;43000;50.770;6.110;2022-08-18T05:50:56;56.65;;;41.30;;
57125;SDS011;43000;50.770;6.110;2022-08-18T05:53:28;53.05;;;39.67;;
57125;SDS011;43000;50.770;6.110;2022-08-18T05:56:09;59.53;;;42.17;;
57125;SDS011;43000;50.770;6.110;2022-08-18T05:58:55;51.10;;;39.95;;
57125;SDS011;43000;50.770;6.110;2022-08-18T06:01:25;53.17;;;41.38;;
57125;SDS011;43000;50.770;6.110;2022-08-18T06:03:56;48.05;;;38.40;;
57125;SDS011;43000;50.770;6.110;2022-08-18T06:06:29;44.88;;;36.75;;
57125;SDS011;43000;50.770;6.110;2022-08-18T06:09:02;42.25;;;34.30;;
57125;SDS011;43000;50.770;6.110;2022-08-18T06:11:35;48.65;;;37.90;;
57125;SDS011;43000;50.770;6.110;2022-08-18T06:14:02;59.00;;;37.55;;
57125;SDS011;43000;50.770;6.110;2022-08-18T06:16:37;76.80;;;40.53;;
57125;SDS011;43000;50.770;6.110;2022-08-18T06:19:21;80.90;;;50.92;;
57125;SDS011;43000;50.770;6.110;2022-08-18T06:21:54;58.70;;;40.88;;
57125;SDS011;43000;50.770;6.110;2022-08-18T06:24:30;55.60;;;41.17;;
57125;SDS011;43000;50.770;6.110;2022-08-18T06:27:05;69.93;;;43.70;;
57125;SDS011;43000;50.770;6.110;2022-08-18T06:29:43;50.83;;;39.22;;
57125;SDS011;43000;50.770;6.110;2022-08-18T06:32:21;54.83;;;40.10;;
57125;SDS011;43000;50.770;6.110;2022-08-18T06:35:02;66.60;;;43.05;;
57125;SDS011;43000;50.770;6.110;2022-08-18T06:37:38;75.97;;;46.97;;
57125;SDS011;43000;50.770;6.110;2022-08-18T06:40:25;69.22;;;44.90;;
57125;SDS011;43000;50.770;6.110;2022-08-18T06:42:52;67.53;;;44.60;;
57125;SDS011;43000;50.770;6.110;2022-08-18T06:45:19;64.60;;;44.92;;
57125;SDS011;43000;50.770;6.110;2022-08-18T06:47:56;60.42;;;41.70;;
57125;SDS011;43000;50.770;6.110;2022-08-18T06:50:29;72.80;;;48.75;;
57125;SDS011;43000;50.770;6.110;2022-08-18T06:53:00;59.75;;;42.03;;
57125;SDS011;43000;50.770;6.110;2022-08-18T06:55:33;64.72;;;43.50;;
57125;SDS011;43000;50.770;6.110;2022-08-18T06:58:02;65.72;;;43.42;;
57125;SDS011;43000;50.770;6.110;2022-08-18T07:00:31;77.22;;;46.47;;
57125;SDS011;43000;50.770;6.110;2022-08-18T07:03:02;87.70;;;49.55;;
57125;SDS011;43000;50.770;6.110;2022-08-18T07:05:32;67.45;;;44.67;;
57125;SDS011;43000;50.770;6.110;2022-08-18T07:08:13;54.78;;;40.50;;
57125;SDS011;43000;50.770;6.110;2022-08-18T07:10:44;106.95;;;57.10;;
57125;SDS011;43000;50.770;6.110;2022-08-18T07:13:16;84.60;;;51.30;;
57125;SDS011;43000;50.770;6.110;2022-08-18T07:15:44;53.67;;;40.00;;
57125;SDS011;43000;50.770;6.110;2022-08-18T07:18:13;59.22;;;41.45;;
57125;SDS011;43000;50.770;6.110;2022-08-18T07:20:42;61.05;;;41.03;;
57125;SDS011;43000;50.770;6.110;2022-08-18T07:23:17;61.78;;;41.42;;
57125;SDS011;43000;50.770;6.110;2022-08-18T07:25:49;61.45;;;41.28;;
57125;SDS011;43000;50.770;6.110;2022-08-18T07:28:28;69.63;;;43.92;;
57125;SDS011;43000;50.770;6.110;2022-08-18T07:31:11;58.50;;;38.88;;
57125;SDS011;43000;50.770;6.110;2022-08-18T07:33:45;55.65;;;36.95;;
57125;SDS011;43000;50.770;6.110;2022-08-18T07:36:16;46.58;;;34.22;;
57125;SDS011;43000;50.770;6.110;2022-08-18T07:38:47;50.42;;;35.15;;
57125;SDS011;43000;50.770;6.110;2022-08-18T07:41:21;41.55;;;28.40;;
57125;SDS011;43000;50.770;6.110;2022-08-18T07:43:55;44.40;;;32.65;;
57125;SDS011;43000;50.770;6.110;2022-08-18T07:46:30;47.28;;;34.28;;
57125;SDS011;43000;50.770;6.110;2022-08-18T07:49:02;56.95;;;35.38;;
57125;SDS011;43000;50.770;6.110;2022-08-18T07:51:32;54.60;;;36.53;;
57125;SDS011;43000;50.770;6.110;2022-08-18T07:54:13;51.95;;;35.85;;
57125;SDS011;43000;50.770;6.110;2022-08-18T07:56:50;43.83;;;30.58;;
57125;SDS011;43000;50.770;6.110;2022-08-18T07:59:25;47.53;;;32.75;;
57125;SDS011;43000;50.770;6.110;2022-08-18T08:02:03;41.92;;;31.45;;
57125;SDS011;43000;50.770;6.110;2022-08-18T08:04:44;43.95;;;31.65;;
57125;SDS011;43000;50.770;6.110;2022-08-18T08:07:20;43.65;;;31.95;;
57125;SDS011;43000;50.770;6.110;2022-08-18T08:09:52;40.10;;;30.23;;
57125;SDS011;43000;50.770;6.110;2022-08-18T08:12:32;38.30;;;27.80;;
57125;SDS011;43000;50.770;6.110;2022-08-18T08:15:08;34.88;;;26.38;;
57125;SDS011;43000;50.770;6.110;2022-08-18T08:17:44;40.55;;;29.65;;
57125;SDS011;43000;50.770;6.110;2022-08-18T08:20:20;34.60;;;25.55;;
57125;SDS011;43000;50.770;6.110;2022-08-18T08:22:56;38.63;;;30.17;;
57125;SDS011;43000;50.770;6.110;2022-08-18T08:25:30;33.03;;;24.42;;
57125;SDS011;43000;50.770;6.110;2022-08-18T08:28:08;37.40;;;27.35;;
57125;SDS011;43000;50.770;6.110;2022-08-18T08:30:52;30.48;;;23.08;;
57125;SDS011;43000;50.770;6.110;2022-08-18T08:33:27;40.42;;;30.27;;
57125;SDS011;43000;50.770;6.110;2022-08-18T08:36:01;37.50;;;28.38;;
57125;SDS011;43000;50.770;6.110;2022-08-18T08:38:34;28.35;;;23.63;;
57125;SDS011;43000;50.770;6.110;2022-08-18T08:41:09;37.35;;;27.75;;
57125;SDS011;43000;50.770;6.110;2022-08-18T08:43:42;34.15;;;25.50;;
57125;SDS011;43000;50.770;6.110;2022-08-18T08:46:14;35.97;;;24.73;;
57125;SDS011;43000;50.770;6.110;2022-08-18T08:48:47;31.42;;;25.48;;
57125;SDS011;43000;50.770;6.110;2022-08-18T08:51:25;41.92;;;31.20;;
57125;SDS011;43000;50.770;6.110;2022-08-18T08:53:58;34.40;;;27.30;;
57125;SDS011;43000;50.770;6.110;2022-08-18T08:56:30;50.88;;;32.55;;
57125;SDS011;43000;50.770;6.110;2022-08-18T08:59:03;39.42;;;29.20;;
57125;SDS011;43000;50.770;6.110;2022-08-18T09:01:33;33.30;;;25.52;;
57125;SDS011;43000;50.770;6.110;2022-08-18T09:04:13;29.45;;;23.90;;
57125;SDS011;43000;50.770;6.110;2022-08-18T09:06:48;35.75;;;25.38;;
57125;SDS011;43000;50.770;6.110;2022-08-18T09:09:28;31.27;;;23.05;;
57125;SDS011;43000;50.770;6.110;2022-08-18T09:12:16;36.78;;;25.63;;
57125;SDS011;43000;50.770;6.110;2022-08-18T09:15:04;41.97;;;30.05;;
57125;SDS011;43000;50.770;6.110;2022-08-18T09:17:48;32.22;;;23.90;;
57125;SDS011;43000;50.770;6.110;2022-08-18T09:20:31;40.90;;;29.98;;
57125;SDS011;43000;50.770;6.110;2022-08-18T09:23:16;31.70;;;24.38;;
57125;SDS011;43000;50.770;6.110;2022-08-18T09:25:47;39.83;;;29.20;;
57125;SDS011;43000;50.770;6.110;2022-08-18T09:28:17;38.25;;;26.77;;
57125;SDS011;43000;50.770;6.110;2022-08-18T09:30:50;38.78;;;28.88;;
57125;SDS011;43000;50.770;6.110;2022-08-18T09:33:46;45.03;;;32.80;;
57125;SDS011;43000;50.770;6.110;2022-08-18T09:36:34;39.78;;;29.15;;
57125;SDS011;43000;50.770;6.110;2022-08-18T09:39:13;31.10;;;24.95;;
57125;SDS011;43000;50.770;6.110;2022-08-18T09:42:06;33.55;;;26.98;;
57125;SDS011;43000;50.770;6.110;2022-08-18T09:44:58;44.53;;;29.27;;
57125;SDS011;43000;50.770;6.110;2022-08-18T09:50:34;36.47;;;26.90;;
57125;SDS011;43000;50.770;6.110;2022-08-18T10:05:34;35.67;;;28.75;;
57125;SDS011;43000;50.770;6.110;2022-08-18T10:08:24;32.60;;;26.88;;
57125;SDS011;43000;50.770;6.110;2022-08-18T10:11:16;36.00;;;27.92;;
57125;SDS011;43000;50.770;6.110;2022-08-18T10:13:56;35.00;;;28.90;;
57125;SDS011;43000;50.770;6.110;2022-08-18T10:16:35;36.78;;;29.23;;
57125;SDS011;43000;50.770;6.110;2022-08-18T10:19:14;48.00;;;32.55;;
57125;SDS011;43000;50.770;6.110;2022-08-18T10:22:02;34.72;;;29.70;;
57125;SDS011;43000;50.770;6.110;2022-08-18T10:24:32;33.08;;;27.15;;
57125;SDS011;43000;50.770;6.110;2022-08-18T10:27:02;34.10;;;26.95;;
57125;SDS011;43000;50.770;6.110;2022-08-18T10:29:47;37.65;;;31.48;;
57125;SDS011;43000;50.770;6.110;2022-08-18T10:32:22;32.38;;;26.38;;
57125;SDS011;43000;50.770;6.110;2022-08-18T10:35:01;32.25;;;25.00;;
57125;SDS011;43000;50.770;6.110;2022-08-18T10:37:32;30.33;;;25.13;;
57125;SDS011;43000;50.770;6.110;2022-08-18T10:40:11;41.55;;;29.98;;
57125;SDS011;43000;50.770;6.110;2022-08-18T10:42:41;39.25;;;27.23;;
57125;SDS011;43000;50.770;6.110;2022-08-18T10:45:14;35.75;;;27.63;;
57125;SDS011;43000;50.770;6.110;2022-08-18T10:47:57;32.65;;;26.75;;
57125;SDS011;43000;50.770;6.110;2022-08-18T10:50:32;29.85;;;22.65;;
57125;SDS011;43000;50.770;6.110;2022-08-18T10:55:41;34.00;;;26.25;;
57125;SDS011;43000;50.770;6.110;2022-08-18T10:58:22;34.20;;;28.20;;
57125;SDS011;43000;50.770;6.110;2022-08-18T11:01:08;37.05;;;28.17;;
57125;SDS011;43000;50.770;6.110;2022-08-18T11:04:00;35.30;;;29.17;;
57125;SDS011;43000;50.770;6.110;2022-08-18T11:06:35;35.22;;;29.30;;
57125;SDS011;43000;50.770;6.110;2022-08-18T11:09:07;34.50;;;28.80;;
57125;SDS011;43000;50.770;6.110;2022-08-18T11:11:36;33.60;;;27.95;;
57125;SDS011;43000;50.770;6.110;2022-08-18T11:14:11;30.50;;;26.05;;
57125;SDS011;43000;50.770;6.110;2022-08-18T11:16:49;31.88;;;25.52;;
57125;SDS011;43000;50.770;6.110;2022-08-18T11:19:22;27.65;;;24.75;;
57125;SDS011;43000;50.770;6.110;2022-08-18T11:21:51;30.15;;;26.10;;
57125;SDS011;43000;50.770;6.110;2022-08-18T11:24:20;27.48;;;22.98;;
57125;SDS011;43000;50.770;6.110;2022-08-18T11:26:49;29.15;;;25.70;;
57125;SDS011;43000;50.770;6.110;2022-08-18T11:29:28;26.23;;;23.13;;
57125;SDS011;43000;50.770;6.110;2022-08-18T11:31:59;31.73;;;26.60;;
57125;SDS011;43000;50.770;6.110;2022-08-18T11:34:34;27.15;;;24.17;;
57125;SDS011;43000;50.770;6.110;2022-08-18T11:37:04;30.17;;;24.55;;
57125;SDS011;43000;50.770;6.110;2022-08-18T11:39:41;27.45;;;22.88;;
57125;SDS011;43000;50.770;6.110;2022-08-18T11:42:13;26.95;;;23.58;;
57125;SDS011;43000;50.770;6.110;2022-08-18T11:44:41;27.00;;;22.10;;
57125;SDS011;43000;50.770;6.110;2022-08-18T11:47:12;28.17;;;24.90;;
57125;SDS011;43000;50.770;6.110;2022-08-18T11:49:50;28.50;;;22.77;;
57125;SDS011;43000;50.770;6.110;2022-08-18T11:52:33;28.67;;;24.80;;
57125;SDS011;43000;50.770;6.110;2022-08-18T11:55:18;25.42;;;22.35;;
57125;SDS011;43000;50.770;6.110;2022-08-18T11:57:50;28.75;;;24.83;;
57125;SDS011;43000;50.770;6.110;2022-08-18T12:00:39;24.77;;;22.17;;
57125;SDS011;43000;50.770;6.110;2022-08-18T12:03:20;24.38;;;21.17;;
57125;SDS011;43000;50.770;6.110;2022-08-18T12:05:55;26.50;;;21.20;;
57125;SDS011;43000;50.770;6.110;2022-08-18T12:08:27;22.10;;;18.90;;
57125;SDS011;43000;50.770;6.110;2022-08-18T12:11:04;27.73;;;24.05;;
57125;SDS011;43000;50.770;6.110;2022-08-18T12:13:41;25.80;;;22.70;;
57125;SDS011;43000;50.770;6.110;2022-08-18T12:16:11;21.05;;;18.38;;
57125;SDS011;43000;50.770;6.110;2022-08-18T12:18:40;22.42;;;17.83;;
57125;SDS011;43000;50.770;6.110;2022-08-18T12:21:07;22.80;;;18.35;;
57125;SDS011;43000;50.770;6.110;2022-08-18T12:23:36;21.35;;;17.17;;
57125;SDS011;43000;50.770;6.110;2022-08-18T12:26:06;21.25;;;19.00;;
57125;SDS011;43000;50.770;6.110;2022-08-18T12:28:33;26.70;;;22.88;;
57125;SDS011;43000;50.770;6.110;2022-08-18T12:31:00;25.42;;;22.70;;
57125;SDS011;43000;50.770;6.110;2022-08-18T12:33:27;21.75;;;19.45;;
57125;SDS011;43000;50.770;6.110;2022-08-18T12:35:53;21.67;;;18.30;;
57125;SDS011;43000;50.770;6.110;2022-08-18T12:38:20;20.80;;;18.63;;
57125;SDS011;43000;50.770;6.110;2022-08-18T12:40:47;20.60;;;18.40;;
57125;SDS011;43000;50.770;6.110;2022-08-18T12:43:15;20.65;;;18.48;;
57125;SDS011;43000;50.770;6.110;2022-08-18T12:45:42;22.35;;;19.55;;
57125;SDS011;43000;50.770;6.110;2022-08-18T12:48:09;28.65;;;19.15;;
57125;SDS011;43000;50.770;6.110;2022-08-18T12:50:36;22.85;;;20.48;;
57125;SDS011;43000;50.770;6.110;2022-08-18T12:53:04;22.05;;;19.70;;
57125;SDS011;43000;50.770;6.110;2022-08-18T12:55:33;25.80;;;20.80;;
57125;SDS011;43000;50.770;6.110;2022-08-18T12:58:03;21.33;;;19.15;;
57125;SDS011;43000;50.770;6.110;2022-08-18T13:00:31;21.98;;;19.90;;
57125;SDS011;43000;50.770;6.110;2022-08-18T13:02:57;19.40;;;17.52;;
57125;SDS011;43000;50.770;6.110;2022-08-18T13:05:24;20.27;;;18.08;;
57125;SDS011;43000;50.770;6.110;2022-08-18T13:07:52;22.55;;;20.25;;
57125;SDS011;43000;50.770;6.110;2022-08-18T13:10:19;19.25;;;17.35;;
57125;SDS011;43000;50.770;6.110;2022-08-18T13:12:45;21.50;;;18.98;;
57125;SDS011;43000;50.770;6.110;2022-08-18T13:15:12;22.92;;;19.85;;
57125;SDS011;43000;50.770;6.110;2022-08-18T13:17:40;18.80;;;16.90;;
57125;SDS011;43000;50.770;6.110;2022-08-18T13:20:08;18.30;;;16.40;;
57125;SDS011;43000;50.770;6.110;2022-08-18T13:22:37;18.65;;;16.85;;
57125;SDS011;43000;50.770;6.110;2022-08-18T13:25:05;20.25;;;17.08;;
57125;SDS011;43000;50.770;6.110;2022-08-18T13:27:34;18.02;;;16.40;;
57125;SDS011;43000;50.770;6.110;2022-08-18T13:30:02;21.30;;;19.35;;
57125;SDS011;43000;50.770;6.110;2022-08-18T13:32:29;26.00;;;18.52;;
57125;SDS011;43000;50.770;6.110;2022-08-18T13:34:58;22.17;;;18.27;;
57125;SDS011;43000;50.770;6.110;2022-08-18T13:37:25;20.48;;;18.40;;
57125;SDS011;43000;50.770;6.110;2022-08-18T13:39:52;27.77;;;20.75;;
57125;SDS011;43000;50.770;6.110;2022-08-18T13:42:19;20.80;;;18.58;;
57125;SDS011;43000;50.770;6.110;2022-08-18T13:44:45;18.77;;;16.75;;
57125;SDS011;43000;50.770;6.110;2022-08-18T13:47:12;15.68;;;14.10;;
57125;SDS011;43000;50.770;6.110;2022-08-18T13:49:39;21.10;;;15.90;;
57125;SDS011;43000;50.770;6.110;2022-08-18T13:52:07;19.38;;;16.52;;
57125;SDS011;43000;50.770;6.110;2022-08-18T13:54:39;17.55;;;15.68;;
57125;SDS011;43000;50.770;6.110;2022-08-18T13:57:07;17.85;;;16.05;;
57125;SDS011;43000;50.770;6.110;2022-08-18T13:59:34;18.00;;;15.57;;
57125;SDS011;43000;50.770;6.110;2022-08-18T14:02:03;17.65;;;15.80;;
57125;SDS011;43000;50.770;6.110;2022-08-18T14:04:32;14.57;;;13.02;;
57125;SDS011;43000;50.770;6.110;2022-08-18T14:07:00;13.80;;;12.40;;
57125;SDS011;43000;50.770;6.110;2022-08-18T14:09:28;13.25;;;11.95;;
57125;SDS011;43000;50.770;6.110;2022-08-18T14:11:55;14.52;;;12.98;;
57125;SDS011;43000;50.770;6.110;2022-08-18T14:14:22;17.10;;;13.23;;
57125;SDS011;43000;50.770;6.110;2022-08-18T14:16:49;15.45;;;12.88;;
57125;SDS011;43000;50.770;6.110;2022-08-18T14:19:16;16.15;;;14.20;;
57125;SDS011;43000;50.770;6.110;2022-08-18T14:22:00;16.75;;;14.93;;
57125;SDS011;43000;50.770;6.110;2022-08-18T14:24:42;16.88;;;15.23;;
57125;SDS011;43000;50.770;6.110;2022-08-18T14:27:28;16.90;;;14.52;;
57125;SDS011;43000;50.770;6.110;2022-08-18T14:29:57;18.42;;;14.73;;
57125;SDS011;43000;50.770;6.110;2022-08-18T14:32:24;14.60;;;10.43;;
57125;SDS011;43000;50.770;6.110;2022-08-18T14:34:53;11.63;;;10.48;;
57125;SDS011;43000;50.770;6.110;2022-08-18T14:37:20;15.43;;;13.82;;
57125;SDS011;43000;50.770;6.110;2022-08-18T14:39:48;16.08;;;12.25;;
57125;SDS011;43000;50.770;6.110;2022-08-18T14:42:15;12.40;;;11.02;;
57125;SDS011;43000;50.770;6.110;2022-08-18T14:44:43;14.88;;;10.48;;
57125;SDS011;43000;50.770;6.110;2022-08-18T14:47:10;21.08;;;11.85;;
57125;SDS011;43000;50.770;6.110;2022-08-18T14:49:37;14.13;;;11.20;;
57125;SDS011;43000;50.770;6.110;2022-08-18T14:52:04;14.00;;;10.27;;
57125;SDS011;43000;50.770;6.110;2022-08-18T14:54:34;11.52;;;10.38;;
57125;SDS011;43000;50.770;6.110;2022-08-18T14:57:02;16.40;;;11.15;;
57125;SDS011;43000;50.770;6.110;2022-08-18T14:59:31;11.40;;;10.23;;
57125;SDS011;43000;50.770;6.110;2022-08-18T15:01:57;12.45;;;9.57;;
57125;SDS011;43000;50.770;6.110;2022-08-18T15:04:24;14.40;;;10.23;;